Time;durP1;ratioP1;P1;durP2;ratioP2;P2;SDS_P1;SDS_P2;PMS_P1;PMS_P2;Temp;Humidity;BMP_temperature;BMP_pressure;BME280_temperature;BME280_humidity;BME280_pressure;Samples;Min_cycle;Max_cycle;Signal;HPM_P1;HPM_P2
2022/12/30 00:01:17;;;;;;;;;;;;;;;15.50;nan;100735.41;5016665;28;19960;-34
2022/12/30 00:03:43;;;;;;;;;;;;;;;15.52;nan;100730.53;5012942;28;19921;-34
2022/12/30 00:06:14;;;;;;;;;;;;;;;15.50;nan;100727.31;5012926;28;20295;-34
2022/12/30 00:08:46;;;;;;;;;;;;;;;15.47;nan;100734.09;5012537;28;19925;-34
2022/12/30 00:11:13;;;;;;;;;;;;;;;15.48;nan;100740.28;5018246;28;20147;-34
2022/12/30 00:33:08;;;;;;;;;;;;;;;15.31;nan;100773.06;5010339;28;19929;-34
2022/12/30 00:35:38;;;;;;;;;;;;;;;15.32;nan;100770.06;5015515;28;19948;-34
2022/12/30 00:38:03;;;;;;;;;;;;;;;15.34;nan;100773.31;5013797;28;20405;-34
2022/12/30 00:40:28;;;;;;;;;;;;;;;15.37;nan;100777.34;5015904;28;20059;-34
2022/12/30 00:43:09;;;;;;;;;;;;;;;15.38;nan;100784.34;5018846;28;19929;-34
2022/12/30 00:45:37;;;;;;;;;;;;;;;15.38;nan;100784.34;5016028;28;19971;-34
2022/12/30 00:56:15;;;;;;;;;;;;;;;15.34;nan;100805.69;5018486;28;19936;-34
2022/12/30 00:58:40;;;;;;;;;;;;;;;15.35;nan;100817.31;5018273;28;19917;-34
2022/12/30 01:01:06;;;;;;;;;;;;;;;15.31;nan;100816.25;5016725;28;19932;-33
2022/12/30 01:03:31;;;;;;;;;;;;;;;15.31;nan;100817.06;5019174;28;20012;-34
2022/12/30 01:05:56;;;;;;;;;;;;;;;15.29;nan;100829.22;5014013;28;19964;-33
2022/12/30 01:08:22;;;;;;;;;;;;;;;15.28;nan;100822.22;5018038;28;19925;-34
2022/12/30 01:10:47;;;;;;;;;;;;;;;15.23;nan;100830.31;5017430;28;19925;-34
2022/12/30 01:13:13;;;;;;;;;;;;;;;15.22;nan;100828.69;5017234;28;19917;-34
2022/12/30 01:15:38;;;;;;;;;;;;;;;15.20;nan;100837.06;5019604;28;20022;-34
2022/12/30 01:18:03;;;;;;;;;;;;;;;15.25;nan;100833.53;5018917;28;19924;-35
2022/12/30 01:20:29;;;;;;;;;;;;;;;15.23;nan;100833.81;5017037;28;19925;-33
2022/12/30 01:22:54;;;;;;;;;;;;;;;15.22;nan;100851.09;5015940;28;21851;-34
2022/12/30 01:25:19;;;;;;;;;;;;;;;15.22;nan;100847.59;5014138;28;19921;-34
2022/12/30 01:27:49;;;;;;;;;;;;;;;15.12;nan;100840.34;5017506;28;20066;-34
2022/12/30 01:30:14;;;;;;;;;;;;;;;15.09;nan;100840.91;5016197;28;19917;-34
2022/12/30 01:32:41;;;;;;;;;;;;;;;15.04;nan;100854.41;5018811;28;19979;-34
2022/12/30 01:35:07;;;;;;;;;;;;;;;15.05;nan;100850.63;5015152;28;19925;-34
2022/12/30 01:37:32;;;;;;;;;;;;;;;15.09;nan;100862.50;5016248;28;19928;-34
2022/12/30 01:39:58;;;;;;;;;;;;;;;15.09;nan;100859.81;5016530;28;19925;-34
2022/12/30 01:42:30;;;;;;;;;;;;;;;15.07;nan;100870.03;5018795;28;20334;-35
2022/12/30 01:44:57;;;;;;;;;;;;;;;15.12;nan;100867.34;5015898;28;20016;-33
2022/12/30 01:47:34;;;;;;;;;;;;;;;15.12;nan;100867.34;5059682;22;19929;-33
2022/12/30 01:50:06;;;;;;;;;;;;;;;15.07;nan;100861.94;5042019;28;20357;-33
2022/12/30 01:52:33;;;;;;;;;;;;;;;15.12;nan;100867.34;5043815;28;19963;-33
2022/12/30 01:55:01;;;;;;;;;;;;;;;15.08;nan;100858.16;5047443;28;20361;-33
2022/12/30 01:57:27;;;;;;;;;;;;;;;15.09;nan;100859.81;5044052;28;19917;-33
2022/12/30 01:59:53;;;;;;;;;;;;;;;15.14;nan;100875.97;5049289;28;19969;-33
2022/12/30 02:02:19;;;;;;;;;;;;;;;15.02;nan;100878.16;5043952;28;19916;-33
2022/12/30 02:04:44;;;;;;;;;;;;;;;15.07;nan;100897.00;5044070;28;20004;-33
2022/12/30 02:07:15;;;;;;;;;;;;;;;15.04;nan;100897.56;5043671;28;20004;-33
2022/12/30 02:09:41;;;;;;;;;;;;;;;15.03;nan;100893.25;5046875;28;19929;-33
2022/12/30 02:12:06;;;;;;;;;;;;;;;15.03;nan;100895.97;5043064;28;20027;-33
2022/12/30 02:14:33;;;;;;;;;;;;;;;15.00;nan;100899.22;5044148;28;19927;-33
2022/12/30 02:17:10;;;;;;;;;;;;;;;15.00;nan;100901.91;5044093;28;19916;-33
2022/12/30 02:19:55;;;;;;;;;;;;;;;14.93;nan;100910.28;5047007;28;19916;-33
2022/12/30 02:22:32;;;;;;;;;;;;;;;14.90;nan;100913.53;5038179;28;20327;-33
2022/12/30 02:25:04;;;;;;;;;;;;;;;14.92;nan;100905.16;5041951;28;19939;-33
2022/12/30 02:27:46;;;;;;;;;;;;;;;14.94;nan;100916.50;5041535;28;20318;-33
2022/12/30 02:30:14;;;;;;;;;;;;;;;14.88;nan;100920.25;5039167;28;19925;-33
2022/12/30 02:32:48;;;;;;;;;;;;;;;14.91;nan;100931.34;5045066;28;19917;-33
2022/12/30 02:35:27;;;;;;;;;;;;;;;14.88;nan;100934.56;5047126;28;19921;-33
2022/12/30 02:38:03;;;;;;;;;;;;;;;14.89;nan;100940.75;5040985;28;19921;-33
2022/12/30 02:46:24;;;;;;;;;;;;;;;14.71;nan;100959.13;5044018;28;20412;-33
2022/12/30 02:48:52;;;;;;;;;;;;;;;14.77;nan;100963.44;5044297;28;20386;-33
2022/12/30 02:54:02;;;;;;;;;;;;;;;14.78;nan;100964.25;5047926;28;19928;-33
2022/12/30 02:56:28;;;;;;;;;;;;;;;14.65;nan;100965.59;5044148;28;19917;-33
2022/12/30 03:03:57;;;;;;;;;;;;;;;14.66;nan;100964.53;5040800;28;19928;-33
2022/12/30 03:04:40;;;;;;;;;;;;;;;14.55;nan;100972.91;5044069;28;20444;-33
2022/12/30 03:07:08;;;;;;;;;;;;;;;14.49;nan;100972.06;5044773;28;20478;-33
2022/12/30 03:09:39;;;;;;;;;;;;;;;14.49;nan;100966.66;5040883;28;20023;-33
2022/12/30 03:12:17;;;;;;;;;;;;;;;14.50;nan;100970.97;5043815;28;20458;-33
2022/12/30 03:14:48;;;;;;;;;;;;;;;14.52;nan;100966.13;5046031;28;19923;-33
2022/12/30 03:17:39;;;;;;;;;;;;;;;14.50;nan;100974.50;5045061;28;20678;-33
2022/12/30 03:20:09;;;;;;;;;;;;;;;14.45;nan;100971.00;5041863;28;19921;-33
2022/12/30 03:28:06;;;;;;;;;;;;;;;14.46;nan;100978.81;5045905;28;20281;-33
2022/12/30 03:30:39;;;;;;;;;;;;;;;14.45;nan;100992.56;5039258;28;19932;-33
2022/12/30 03:33:05;;;;;;;;;;;;;;;14.48;nan;100992.81;5047623;28;20218;-33
2022/12/30 03:35:34;;;;;;;;;;;;;;;14.50;nan;100997.94;5042610;28;19956;-33
2022/12/30 03:38:01;;;;;;;;;;;;;;;14.55;nan;101006.06;5045802;28;19921;-33
2022/12/30 03:40:32;;;;;;;;;;;;;;;14.55;nan;100997.97;5046300;28;20320;-33
2022/12/30 03:42:58;;;;;;;;;;;;;;;14.52;nan;101001.97;5044134;28;20393;-33
2022/12/30 03:45:24;;;;;;;;;;;;;;;14.51;nan;100996.88;5043379;28;20398;-33
2022/12/30 03:47:49;;;;;;;;;;;;;;;14.54;nan;100998.22;5044933;28;19943;-33
2022/12/30 03:50:15;;;;;;;;;;;;;;;14.48;nan;101003.59;5044978;28;19921;-33
2022/12/30 03:52:40;;;;;;;;;;;;;;;14.45;nan;101008.72;5042632;28;19923;-33
2022/12/30 03:55:06;;;;;;;;;;;;;;;14.42;nan;101014.63;5037188;28;21948;-33
2022/12/30 03:57:31;;;;;;;;;;;;;;;14.46;nan;101010.34;5037996;28;19920;-33
2022/12/30 03:59:56;;;;;;;;;;;;;;;14.44;nan;101013.31;5043383;28;20003;-33
2022/12/30 04:02:22;;;;;;;;;;;;;;;14.46;nan;101016.53;5044969;28;20437;-33
2022/12/30 04:04:47;;;;;;;;;;;;;;;14.39;nan;101021.38;5040829;28;20333;-33
2022/12/30 04:07:13;;;;;;;;;;;;;;;14.41;nan;101023.78;5044663;28;20199;-33
2022/12/30 04:09:38;;;;;;;;;;;;;;;14.40;nan;101030.25;5044228;28;19920;-33
2022/12/30 04:12:04;;;;;;;;;;;;;;;14.41;nan;101034.56;5040826;28;19925;-33
2022/12/30 04:14:29;;;;;;;;;;;;;;;14.38;nan;101035.91;5042997;28;19925;-33
2022/12/30 04:16:55;;;;;;;;;;;;;;;14.36;nan;101039.94;5047692;28;19962;-33
2022/12/30 04:19:20;;;;;;;;;;;;;;;14.37;nan;101036.19;5048672;28;20015;-33
2022/12/30 04:21:46;;;;;;;;;;;;;;;14.34;nan;101036.69;5048246;28;19917;-33
2022/12/30 04:24:11;;;;;;;;;;;;;;;14.34;nan;101040.19;5048101;28;20015;-33
2022/12/30 04:26:36;;;;;;;;;;;;;;;14.32;nan;101049.63;5048358;28;19924;-33
2022/12/30 04:29:02;;;;;;;;;;;;;;;14.29;nan;101047.47;5043804;28;19951;-33
2022/12/30 04:31:27;;;;;;;;;;;;;;;14.28;nan;101043.97;5045410;28;19925;-33
2022/12/30 04:33:53;;;;;;;;;;;;;;;14.27;nan;101052.31;5046588;28;20083;-33
2022/12/30 04:36:19;;;;;;;;;;;;;;;14.23;nan;101053.94;5046127;28;19917;-33
2022/12/30 04:38:44;;;;;;;;;;;;;;;14.18;nan;101055.53;5045520;28;19962;-33
2022/12/30 04:41:10;;;;;;;;;;;;;;;14.11;nan;101060.34;5044088;28;20015;-33
2022/12/30 04:43:35;;;;;;;;;;;;;;;14.07;nan;101056.56;5042848;28;19924;-33
2022/12/30 04:46:01;;;;;;;;;;;;;;;14.04;nan;101056.28;5050559;28;19935;-33
2022/12/30 04:48:26;;;;;;;;;;;;;;;13.98;nan;101047.34;5047989;28;19921;-33
2022/12/30 04:50:52;;;;;;;;;;;;;;;13.93;nan;101051.91;5051262;28;19939;-32
2022/12/30 04:53:17;;;;;;;;;;;;;;;13.85;nan;101054.06;5049040;28;19917;-33
2022/12/30 04:55:42;;;;;;;;;;;;;;;13.82;nan;101062.66;5046507;28;19927;-32
2022/12/30 04:58:08;;;;;;;;;;;;;;;13.79;nan;101065.84;5049385;28;19943;-32
2022/12/30 05:00:33;;;;;;;;;;;;;;;13.74;nan;101073.09;5047498;28;19978;-33
2022/12/30 05:02:59;;;;;;;;;;;;;;;13.69;nan;101073.09;5046951;28;20314;-32
2022/12/30 05:05:25;;;;;;;;;;;;;;;13.63;nan;101071.41;5044184;28;20405;-33
2022/12/30 05:07:50;;;;;;;;;;;;;;;13.61;nan;101079.75;5046454;28;20128;-32
2022/12/30 05:10:15;;;;;;;;;;;;;;;13.55;nan;101078.91;5046662;28;20425;-32
2022/12/30 05:12:41;;;;;;;;;;;;;;;13.49;nan;101093.44;5049397;28;19917;-32
2022/12/30 05:15:07;;;;;;;;;;;;;;;13.48;nan;101096.38;5043464;28;19932;-32
2022/12/30 05:17:32;;;;;;;;;;;;;;;13.47;nan;101097.44;5041729;28;19921;-32
2022/12/30 05:19:57;;;;;;;;;;;;;;;13.45;nan;101105.75;5045939;28;20381;-32
2022/12/30 05:22:23;;;;;;;;;;;;;;;13.43;nan;101112.47;5042990;28;19978;-33
2022/12/30 05:27:32;;;;;;;;;;;;;;;13.32;nan;101116.97;5039483;28;20542;-32
2022/12/30 05:29:57;;;;;;;;;;;;;;;13.29;nan;101126.38;5049341;28;19921;-32
2022/12/30 05:32:23;;;;;;;;;;;;;;;13.27;nan;101130.38;5046689;28;20007;-32
2022/12/30 05:34:48;;;;;;;;;;;;;;;13.27;nan;101128.50;5041241;28;19917;-33
2022/12/30 05:37:14;;;;;;;;;;;;;;;13.26;nan;101134.13;5047136;28;19917;-32
2022/12/30 05:39:39;;;;;;;;;;;;;;;13.22;nan;101139.22;5041818;28;20302;-32
2022/12/30 05:42:05;;;;;;;;;;;;;;;13.21;nan;101136.78;5045384;28;19924;-32
2022/12/30 05:44:31;;;;;;;;;;;;;;;13.13;nan;101137.22;5047667;28;19925;-32
2022/12/30 05:46:56;;;;;;;;;;;;;;;13.10;nan;101140.41;5046909;28;19924;-33
2022/12/30 05:49:22;;;;;;;;;;;;;;;13.06;nan;101150.88;5045774;28;19931;-32
2022/12/30 05:51:47;;;;;;;;;;;;;;;13.08;nan;101151.44;5046885;28;19917;-32
2022/12/30 05:54:12;;;;;;;;;;;;;;;13.04;nan;101163.78;5042426;28;19973;-32
2022/12/30 05:56:38;;;;;;;;;;;;;;;13.03;nan;101159.47;5045233;28;20063;-32
2022/12/30 05:59:03;;;;;;;;;;;;;;;13.00;nan;101165.34;5044970;28;19935;-32
2022/12/30 06:01:28;;;;;;;;;;;;;;;12.98;nan;101162.91;5048323;28;19921;-32
2022/12/30 06:03:55;;;;;;;;;;;;;;;12.98;nan;101175.56;5044794;28;19917;-32
2022/12/30 06:06:21;;;;;;;;;;;;;;;13.00;nan;101176.91;5044240;28;19917;-32
2022/12/30 06:08:46;;;;;;;;;;;;;;;12.98;nan;101168.28;5043275;28;20060;-32
2022/12/30 06:11:11;;;;;;;;;;;;;;;12.97;nan;101173.94;5041788;28;20058;-32
2022/12/30 06:13:36;;;;;;;;;;;;;;;12.94;nan;101175.25;5045774;28;20054;-32
2022/12/30 06:16:02;;;;;;;;;;;;;;;12.96;nan;101180.38;5044196;28;20386;-32
2022/12/30 06:18:27;;;;;;;;;;;;;;;12.97;nan;101173.94;5041720;28;20183;-32
2022/12/30 06:20:54;;;;;;;;;;;;;;;12.96;nan;101186.56;5038701;28;19964;-32
2022/12/30 06:23:20;;;;;;;;;;;;;;;12.96;nan;101191.94;5044436;28;19978;-32
2022/12/30 06:25:49;;;;;;;;;;;;;;;12.95;nan;101189.50;5044785;28;20350;-32
2022/12/30 06:28:15;;;;;;;;;;;;;;;12.98;nan;101205.13;5043009;28;19921;-32
2022/12/30 06:30:40;;;;;;;;;;;;;;;12.94;nan;101207.53;5047149;28;19936;-32
2022/12/30 06:33:06;;;;;;;;;;;;;;;12.92;nan;101206.13;5043730;28;19925;-33
2022/12/30 06:35:31;;;;;;;;;;;;;;;12.91;nan;101216.06;5043781;28;19916;-32
2022/12/30 06:37:56;;;;;;;;;;;;;;;12.91;nan;101216.06;5044929;28;19920;-32
2022/12/30 06:40:22;;;;;;;;;;;;;;;12.87;nan;101217.66;5046397;28;19921;-32
2022/12/30 06:42:47;;;;;;;;;;;;;;;12.82;nan;101224.84;5042849;28;19925;-32
2022/12/30 06:45:12;;;;;;;;;;;;;;;12.79;nan;101228.88;5040630;28;19928;-32
2022/12/30 06:47:38;;;;;;;;;;;;;;;12.77;nan;101231.00;5039762;28;20278;-32
2022/12/30 06:50:03;;;;;;;;;;;;;;;12.73;nan;101240.59;5043165;28;20009;-32
2022/12/30 06:52:29;;;;;;;;;;;;;;;12.71;nan;101240.03;5043761;28;20397;-32
2022/12/30 06:54:54;;;;;;;;;;;;;;;12.70;nan;101246.47;5042493;28;19916;-32
2022/12/30 06:57:19;;;;;;;;;;;;;;;12.68;nan;101246.72;5036891;28;20397;-32
2022/12/30 06:59:45;;;;;;;;;;;;;;;12.67;nan;101252.38;5043420;28;20371;-32
2022/12/30 07:02:11;;;;;;;;;;;;;;;12.66;nan;101250.75;5044017;28;20516;-32
2022/12/30 07:04:36;;;;;;;;;;;;;;;12.63;nan;101254.75;5044168;28;19928;-32
2022/12/30 07:07:01;;;;;;;;;;;;;;;12.59;nan;101266.25;5043657;28;21298;-32
2022/12/30 07:09:27;;;;;;;;;;;;;;;12.54;nan;101263.47;5041499;28;19921;-32
2022/12/30 07:11:52;;;;;;;;;;;;;;;12.52;nan;101273.66;5040112;28;19924;-32
2022/12/30 07:14:18;;;;;;;;;;;;;;;12.49;nan;101261.53;5045160;28;19917;-32
2022/12/30 07:16:43;;;;;;;;;;;;;;;12.50;nan;101286.53;5042585;28;20387;-32
2022/12/30 07:19:08;;;;;;;;;;;;;;;12.47;nan;101289.72;5045519;28;19921;-32
2022/12/30 07:21:34;;;;;;;;;;;;;;;12.47;nan;101301.28;5043243;28;20143;-32
2022/12/30 07:23:59;;;;;;;;;;;;;;;12.46;nan;101298.84;5043264;28;19973;-32
2022/12/30 07:26:24;;;;;;;;;;;;;;;12.42;nan;101303.91;5044923;28;20350;-32
2022/12/30 07:28:52;;;;;;;;;;;;;;;12.38;nan;101305.44;5040143;28;20108;-32
2022/12/30 07:31:18;;;;;;;;;;;;;;;12.34;nan;101317.75;5041935;28;20036;-32
2022/12/30 07:33:43;;;;;;;;;;;;;;;12.34;nan;101312.38;5045241;28;19920;-32
2022/12/30 07:36:08;;;;;;;;;;;;;;;12.34;nan;101320.44;5044025;28;20068;-32
2022/12/30 07:38:34;;;;;;;;;;;;;;;12.32;nan;101320.69;5043711;28;20007;-32
2022/12/30 07:40:59;;;;;;;;;;;;;;;12.33;nan;101322.31;5040068;28;20445;-32
2022/12/30 07:43:25;;;;;;;;;;;;;;;12.28;nan;101330.28;5043371;28;20366;-32
2022/12/30 07:45:50;;;;;;;;;;;;;;;12.29;nan;101326.56;5043481;28;20367;-33
2022/12/30 07:48:16;;;;;;;;;;;;;;;12.27;nan;101331.34;5043430;28;20010;-35
2022/12/30 07:50:41;;;;;;;;;;;;;;;12.27;nan;101334.03;5042268;28;19962;-35
2022/12/30 07:53:06;;;;;;;;;;;;;;;12.28;nan;101343.72;5047245;28;20323;-35
2022/12/30 07:55:32;;;;;;;;;;;;;;;12.25;nan;101341.53;5047220;28;20385;-38
2022/12/30 07:57:58;;;;;;;;;;;;;;;12.27;nan;101346.66;5047187;28;19929;-35
2022/12/30 08:00:23;;;;;;;;;;;;;;;12.30;nan;101346.97;5046422;28;20134;-35
2022/12/30 08:02:48;;;;;;;;;;;;;;;12.30;nan;101348.84;5044669;28;20127;-35
2022/12/30 08:05:14;;;;;;;;;;;;;;;12.30;nan;101363.09;5048648;28;19917;-36
2022/12/30 08:07:39;;;;;;;;;;;;;;;12.29;nan;101366.03;5044139;28;20063;-37
2022/12/30 08:10:05;;;;;;;;;;;;;;;12.26;nan;101367.34;5049135;28;19925;-35
2022/12/30 08:12:30;;;;;;;;;;;;;;;12.25;nan;101368.41;5047399;28;20293;-35
2022/12/30 08:14:55;;;;;;;;;;;;;;;12.28;nan;101375.97;5048249;28;19924;-34
2022/12/30 08:17:21;;;;;;;;;;;;;;;12.26;nan;101375.41;5046071;28;19916;-36
2022/12/30 08:19:47;;;;;;;;;;;;;;;12.24;nan;101374.03;5047282;28;19921;-36
2022/12/30 08:22:12;;;;;;;;;;;;;;;12.25;nan;101368.41;5042576;28;20385;-35
2022/12/30 08:24:37;;;;;;;;;;;;;;;12.26;nan;101377.28;5042282;28;19970;-37
2022/12/30 08:27:03;;;;;;;;;;;;;;;12.25;nan;101378.34;5045728;28;20410;-35
2022/12/30 08:29:28;;;;;;;;;;;;;;;12.27;nan;101379.72;5046259;28;20290;-38
2022/12/30 08:31:56;;;;;;;;;;;;;;;12.28;nan;101377.84;5046842;28;19925;-35
2022/12/30 08:34:21;;;;;;;;;;;;;;;12.30;nan;101389.97;5043074;28;19935;-35
2022/12/30 08:36:47;;;;;;;;;;;;;;;12.34;nan;101388.41;5044967;28;20318;-34
2022/12/30 08:39:13;;;;;;;;;;;;;;;12.33;nan;101394.03;5047414;28;19917;-35
2022/12/30 08:41:42;;;;;;;;;;;;;;;12.36;nan;101394.38;5046677;28;19917;-38
2022/12/30 08:44:08;;;;;;;;;;;;;;;12.45;nan;101391.28;5044935;28;20290;-35
2022/12/30 08:46:35;;;;;;;;;;;;;;;12.52;nan;101391.94;4975117;28;1955069;-35
2022/12/30 08:49:00;;;;;;;;;;;;;;;12.53;nan;101397.06;5046580;28;20006;-35
2022/12/30 08:51:26;;;;;;;;;;;;;;;12.57;nan;101397.41;5046996;28;20310;-35
2022/12/30 08:53:51;;;;;;;;;;;;;;;12.64;nan;101398.84;5045344;28;20464;-35
2022/12/30 08:56:18;;;;;;;;;;;;;;;12.69;nan;101390.03;5048590;28;19928;-36
2022/12/30 08:58:44;;;;;;;;;;;;;;;12.73;nan;101396.53;5043963;28;19967;-37
2022/12/30 09:01:16;;;;;;;;;;;;;;;12.75;nan;101397.13;5047951;28;20291;-35
2022/12/30 09:03:42;;;;;;;;;;;;;;;12.77;nan;101400.41;5047785;28;19917;-35
2022/12/30 09:06:09;;;;;;;;;;;;;;;12.74;nan;101403.53;5048477;28;19959;-35
2022/12/30 09:08:35;;;;;;;;;;;;;;;12.80;nan;101407.97;5044894;28;19925;-35
2022/12/30 09:11:02;;;;;;;;;;;;;;;12.77;nan;101410.34;5046021;28;19928;-35
2022/12/30 09:13:27;;;;;;;;;;;;;;;12.79;nan;101411.72;5048116;28;19917;-35
2022/12/30 09:15:53;;;;;;;;;;;;;;;12.81;nan;101417.66;5045691;28;19966;-35
2022/12/30 09:18:19;;;;;;;;;;;;;;;12.90;nan;101428.78;5044078;28;19917;-36
2022/12/30 09:20:44;;;;;;;;;;;;;;;12.93;nan;101431.03;5043617;28;20007;-35
2022/12/30 09:23:09;;;;;;;;;;;;;;;12.97;nan;101424.88;5043747;28;19921;-36
2022/12/30 09:25:35;;;;;;;;;;;;;;;13.04;nan;101429.28;5046782;28;20326;-35
2022/12/30 09:28:00;;;;;;;;;;;;;;;13.12;nan;101428.88;5042171;28;19932;-35
2022/12/30 09:30:25;;;;;;;;;;;;;;;13.20;nan;101428.44;5045317;28;19917;-36
2022/12/30 09:32:51;;;;;;;;;;;;;;;13.25;nan;101437.41;5044457;28;19927;-35
2022/12/30 09:35:16;;;;;;;;;;;;;;;13.33;nan;101433.47;5047479;28;19952;-35
2022/12/30 09:37:41;;;;;;;;;;;;;;;13.37;nan;101431.91;5045169;28;20292;-36
2022/12/30 09:40:12;;;;;;;;;;;;;;;13.43;nan;101432.78;5043588;28;20011;-35
2022/12/30 09:45:42;;;;;;;;;;;;;;;13.49;nan;101421.84;5046648;28;19971;-35
2022/12/30 09:48:11;;;;;;;;;;;;;;;13.52;nan;101418.66;5023188;28;20322;-35
2022/12/30 09:50:48;;;;;;;;;;;;;;;13.57;nan;101423.25;5044060;28;19970;-36
2022/12/30 09:53:35;;;;;;;;;;;;;;;13.58;nan;101420.31;5046857;28;19923;-35
2022/12/30 09:56:10;;;;;;;;;;;;;;;13.64;nan;101423.06;5039551;28;20413;-35
2022/12/30 09:58:35;;;;;;;;;;;;;;;13.64;nan;101423.06;5042096;28;20378;-36
2022/12/30 10:01:24;;;;;;;;;;;;;;;13.69;nan;101409.69;5042850;28;19928;-36
2022/12/30 10:03:55;;;;;;;;;;;;;;;13.70;nan;101416.69;5039460;28;19952;-35
2022/12/30 10:06:29;;;;;;;;;;;;;;;13.75;nan;101416.75;5041072;28;20314;-35
2022/12/30 10:08:55;;;;;;;;;;;;;;;13.79;nan;101415.97;5045342;28;19920;-36
2022/12/30 10:11:32;;;;;;;;;;;;;;;13.87;nan;101422.81;5042991;28;19963;-35
2022/12/30 10:14:10;;;;;;;;;;;;;;;13.90;nan;101414.22;5042989;28;20295;-36
2022/12/30 10:16:42;;;;;;;;;;;;;;;13.99;nan;101409.97;5044518;28;19921;-38
2022/12/30 10:19:13;;;;;;;;;;;;;;;14.07;nan;101404.16;5045036;28;19921;-35
2022/12/30 10:21:57;;;;;;;;;;;;;;;14.09;nan;101404.69;5044330;28;19916;-38
2022/12/30 10:24:23;;;;;;;;;;;;;;;14.21;nan;101401.84;5041048;28;20397;-36
2022/12/30 10:26:49;;;;;;;;;;;;;;;14.29;nan;101404.06;5044974;28;20114;-36
2022/12/30 10:29:21;;;;;;;;;;;;;;;14.26;nan;101399.19;5045082;28;19920;-35
2022/12/30 10:31:47;;;;;;;;;;;;;;;14.31;nan;101395.72;5041277;28;20011;-38
2022/12/30 10:34:13;;;;;;;;;;;;;;;14.37;nan;101400.09;5040851;28;19923;-36
2022/12/30 10:36:41;;;;;;;;;;;;;;;14.44;nan;101381.84;5045423;28;20367;-37
2022/12/30 10:39:14;;;;;;;;;;;;;;;14.45;nan;101388.88;5043525;28;20067;-35
2022/12/30 10:41:54;;;;;;;;;;;;;;;14.54;nan;101390.00;5038728;28;20504;-35
2022/12/30 10:44:31;;;;;;;;;;;;;;;14.56;nan;101379.78;5039798;28;20318;-35
2022/12/30 10:47:10;;;;;;;;;;;;;;;14.65;nan;101364.72;5040022;28;20533;-35
2022/12/30 10:49:52;;;;;;;;;;;;;;;14.75;nan;101364.81;5040734;28;20160;-35
2022/12/30 10:52:18;;;;;;;;;;;;;;;14.78;nan;101374.25;5035776;28;19927;-38
2022/12/30 10:54:44;;;;;;;;;;;;;;;14.78;nan;101366.97;5038164;28;20066;-38
2022/12/30 10:57:17;;;;;;;;;;;;;;;14.80;nan;101353.22;5035334;28;20204;-37
2022/12/30 10:59:43;;;;;;;;;;;;;;;14.85;nan;101355.13;5039793;28;19947;-38
2022/12/30 11:02:21;;;;;;;;;;;;;;;14.97;nan;101355.75;5040022;28;19916;-35
2022/12/30 11:04:46;;;;;;;;;;;;;;;14.93;nan;101357.34;5044393;28;20024;-36
2022/12/30 11:07:13;;;;;;;;;;;;;;;14.97;nan;101353.88;5031539;28;19921;-38
2022/12/30 11:09:39;;;;;;;;;;;;;;;15.00;nan;101360.63;5036940;28;20019;-35
2022/12/30 11:15:10;;;;;;;;;;;;;;;15.04;nan;101353.63;5041551;28;19979;-37
2022/12/30 11:17:41;;;;;;;;;;;;;;;15.11;nan;101359.59;5038466;28;20491;-36
2022/12/30 11:20:19;;;;;;;;;;;;;;;15.21;nan;101356.94;5041601;28;20013;-36
2022/12/30 11:22:46;;;;;;;;;;;;;;;15.34;nan;101361.03;5043971;28;20390;-37
2022/12/30 11:25:17;;;;;;;;;;;;;;;15.37;nan;101357.81;5042798;28;19924;-36
2022/12/30 11:27:54;;;;;;;;;;;;;;;15.40;nan;101351.88;5037971;28;19916;-36
2022/12/30 11:30:25;;;;;;;;;;;;;;;15.49;nan;101352.19;5033134;28;19928;-37
2022/12/30 11:32:51;;;;;;;;;;;;;;;15.48;nan;101361.34;5038725;28;19971;-37
2022/12/30 11:35:35;;;;;;;;;;;;;;;15.47;nan;101348.94;5036272;28;19986;-36
2022/12/30 11:38:02;;;;;;;;;;;;;;;15.42;nan;101341.59;5038350;28;19925;-36
2022/12/30 11:40:32;;;;;;;;;;;;;;;15.37;nan;101347.00;5035299;28;20400;-36
2022/12/30 11:43:08;;;;;;;;;;;;;;;15.40;nan;101343.75;5036804;28;20011;-36
2022/12/30 11:45:34;;;;;;;;;;;;;;;15.47;nan;101340.84;5038470;28;20002;-36
2022/12/30 11:47:59;;;;;;;;;;;;;;;15.50;nan;101345.69;5038919;28;20422;-36
2022/12/30 11:50:24;;;;;;;;;;;;;;;15.54;nan;101349.47;5037627;28;20134;-36
2022/12/30 11:52:51;;;;;;;;;;;;;;;15.60;nan;101349.25;5036332;28;19925;-35
2022/12/30 11:55:19;;;;;;;;;;;;;;;15.65;nan;101351.16;5039083;28;19948;-35
2022/12/30 11:57:47;;;;;;;;;;;;;;;15.76;nan;101341.19;5035578;28;19928;-38
2022/12/30 12:00:12;;;;;;;;;;;;;;;15.68;nan;101345.22;5034667;28;19921;-36
2022/12/30 12:02:40;;;;;;;;;;;;;;;15.74;nan;101349.56;5037401;28;19947;-35
2022/12/30 12:05:24;;;;;;;;;;;;;;;15.69;nan;101336.84;5038458;28;19946;-36
2022/12/30 12:07:53;;;;;;;;;;;;;;;15.63;nan;101339.81;5037351;28;19928;-35
2022/12/30 12:10:23;;;;;;;;;;;;;;;15.72;nan;101335.50;5031388;28;19921;-35
2022/12/30 12:13:01;;;;;;;;;;;;;;;15.80;nan;101331.44;5034086;28;19928;-35
2022/12/30 12:15:26;;;;;;;;;;;;;;;15.81;nan;101333.09;5040856;28;20302;-37
2022/12/30 12:17:56;;;;;;;;;;;;;;;15.81;nan;101331.22;5037815;28;19950;-35
2022/12/30 12:20:31;;;;;;;;;;;;;;;15.77;nan;101326.59;5038263;28;19920;-36
2022/12/30 12:23:17;;;;;;;;;;;;;;;15.73;nan;101318.22;5038177;28;20197;-36
2022/12/30 12:25:46;;;;;;;;;;;;;;;15.70;nan;101310.66;5036155;28;19920;-38
2022/12/30 12:28:12;;;;;;;;;;;;;;;15.59;nan;101312.50;5039376;28;19963;-38
2022/12/30 12:30:53;;;;;;;;;;;;;;;15.54;nan;101306.28;5035408;28;19925;-36
2022/12/30 12:33:21;;;;;;;;;;;;;;;15.53;nan;101300.06;5033484;28;20357;-37
2022/12/30 12:35:54;;;;;;;;;;;;;;;15.41;nan;101303.00;5037477;28;19932;-36
2022/12/30 12:38:46;;;;;;;;;;;;;;;15.41;nan;101299.47;5043289;28;20307;-35
2022/12/30 12:41:14;;;;;;;;;;;;;;;15.36;nan;101296.78;5023466;28;20365;-36
2022/12/30 12:43:48;;;;;;;;;;;;;;;15.31;nan;101292.19;5044206;28;20146;-36
2022/12/30 12:46:32;;;;;;;;;;;;;;;15.30;nan;101301.38;5041224;28;20611;-35
2022/12/30 12:48:57;;;;;;;;;;;;;;;15.27;nan;101309.19;5038142;28;19928;-37
2022/12/30 12:51:51;;;;;;;;;;;;;;;15.22;nan;101301.88;5040560;28;19920;-36
2022/12/30 12:54:16;;;;;;;;;;;;;;;15.22;nan;101295.66;5040671;28;19917;-35
2022/12/30 12:56:54;;;;;;;;;;;;;;;15.22;nan;101298.34;5036256;28;19968;-38
2022/12/30 12:59:20;;;;;;;;;;;;;;;15.10;nan;101301.31;5036422;28;20122;-35
2022/12/30 13:01:46;;;;;;;;;;;;;;;15.06;nan;101289.38;5042188;28;19924;-36
2022/12/30 13:04:23;;;;;;;;;;;;;;;15.10;nan;101295.91;5045437;28;19986;-36
2022/12/30 13:06:57;;;;;;;;;;;;;;;15.12;nan;101301.84;5038440;28;20004;-39
2022/12/30 13:09:25;;;;;;;;;;;;;;;15.07;nan;101293.72;5040759;28;20298;-35
2022/12/30 13:11:54;;;;;;;;;;;;;;;15.07;nan;101293.72;5037244;28;19921;-36
2022/12/30 13:14:44;;;;;;;;;;;;;;;15.17;nan;101295.66;5042950;28;20387;-36
2022/12/30 13:17:33;;;;;;;;;;;;;;;15.30;nan;101293.25;5034064;28;19943;-37
2022/12/30 13:20:00;;;;;;;;;;;;;;;15.56;nan;101291.41;5031447;28;20345;-36
2022/12/30 13:22:30;;;;;;;;;;;;;;;15.80;nan;101293.63;5042701;28;19940;-36
2022/12/30 13:24:57;;;;;;;;;;;;;;;16.07;nan;101294.19;5038868;28;19917;-36
2022/12/30 13:27:30;;;;;;;;;;;;;;;16.28;nan;101298.47;5035423;28;20145;-36
2022/12/30 13:29:57;;;;;;;;;;;;;;;16.42;nan;101293.31;5036729;28;19924;-37
2022/12/30 13:32:28;;;;;;;;;;;;;;;16.40;nan;101284.69;5042223;28;19916;-36
2022/12/30 13:35:13;;;;;;;;;;;;;;;16.28;nan;101276.84;5036533;28;19921;-35
2022/12/30 13:37:43;;;;;;;;;;;;;;;16.07;nan;101282.56;5041358;28;19927;-36
2022/12/30 13:40:14;;;;;;;;;;;;;;;15.94;nan;101268.50;5038963;28;19921;-36
2022/12/30 13:42:54;;;;;;;;;;;;;;;15.83;nan;101268.78;5037547;28;19925;-35
2022/12/30 13:45:22;;;;;;;;;;;;;;;15.73;nan;101258.78;5038240;28;19936;-35
2022/12/30 13:47:49;;;;;;;;;;;;;;;15.64;nan;101261.22;5054743;22;19959;-32
2022/12/30 13:50:20;;;;;;;;;;;;;;;15.57;nan;101262.53;5039124;28;20447;-32
2022/12/30 13:52:47;;;;;;;;;;;;;;;15.54;nan;101265.75;5036965;28;19917;-34
2022/12/30 13:55:35;;;;;;;;;;;;;;;15.45;nan;101264.69;5039010;28;19925;-34
2022/12/30 13:58:08;;;;;;;;;;;;;;;15.37;nan;101263.31;5033449;28;20237;-34